deformed-offering

Current conditions - KSJC (San Jose International)


Coded METAR: 2017/12/14 18:53 KSJC 141853Z 00000KT 7SM FEW030 FEW100 14/03 A3013 RMK AO2 SLP202 FU FEW030 T01440033

Weather Report

Report issued: Thu 14th Dec at 10:53 PST

Wind: calm 0 knots (0 mph, 0 kph, Force 0)
Visibility: 7 statute miles
Cloud: a few clouds at 3000 feet
Cloud: a few clouds at 10000 feet
Temperature: 57F / 14C
Dewpoint: 37F / 3C
Humidity: 47%
Pressure: 30.13 inches of mercury

Current conditions - KNUQ (Moffett NAS)


Coded METAR: 2017/12/14 17:56 KNUQ 141756Z 00000KT 9SM CLR 11/06 A3014 RMK AO2 SLP209 T01110056 10117 20033 51018

Weather Report

Report issued: Thu 14th Dec at 09:56 PST

Wind: calm 0 knots (0 mph, 0 kph, Force 0)
Visibility: 9 statute miles
Cloud: Sky clear
Temperature: 52F / 11C
Dewpoint: 43F / 6C
Humidity: 71%
Pressure: 30.14 inches of mercury

Current conditions - KRHV (Reid-Hillview Airport - San Jose)


Coded METAR: 2017/12/14 18:47 KRHV 141847Z 00000KT 10SM SKC 15/04 A3011

Weather Report

Report issued: Thu 14th Dec at 10:47 PST

Wind: calm 0 knots (0 mph, 0 kph, Force 0)
Visibility: 10 statute miles
Cloud: Sky clear
Temperature: 59F / 15C
Dewpoint: 39F / 4C
Humidity: 48%
Pressure: 30.11 inches of mercury

Current conditions - KPAO (Palo Alto Airport)


Coded METAR: 2017/12/14 18:47 KPAO 141847Z VRB08KT 10SM SKC 13/08 A3013

Weather Report

Report issued: Thu 14th Dec at 10:47 PST

Wind: variable gentle breeze at 8 knots (9 mph, 15 kph, Force 3)
Visibility: 10 statute miles
Cloud: Sky clear
Temperature: 55F / 13C
Dewpoint: 46F / 8C
Humidity: 72%
Pressure: 30.13 inches of mercury

 

deformed-offering